createdAt,value
2022-12-15T00:00:03.959Z,100609.44
2022-12-15T00:02:49.393Z,100617.59
2022-12-15T00:05:35.033Z,100619.47
2022-12-15T00:08:28.442Z,100618.41
2022-12-15T00:11:14.456Z,100614.31
2022-12-15T00:14:00.031Z,100622.44
2022-12-15T00:16:45.404Z,100620.84
2022-12-15T00:19:30.836Z,100619.47
2022-12-15T00:22:15.846Z,100620.56
2022-12-15T00:25:00.898Z,100620.00
2022-12-15T00:27:46.475Z,100617.28
2022-12-15T00:30:31.874Z,100623.25
2022-12-15T00:33:16.898Z,100622.44
2022-12-15T00:36:01.871Z,100621.38
2022-12-15T00:38:41.613Z,100633.06
2022-12-15T00:41:08.325Z,100634.66
2022-12-15T00:43:36.766Z,100626.81
2022-12-15T00:46:22.853Z,100631.41
2022-12-15T00:48:49.837Z,100632.22
2022-12-15T00:51:16.872Z,100628.69
2022-12-15T00:54:03.134Z,100622.19
2022-12-15T00:56:48.633Z,100621.38
2022-12-15T00:59:34.888Z,100623.25
2022-12-15T01:02:21.573Z,100626.50
2022-12-15T01:05:06.882Z,100624.63
2022-12-15T01:07:52.421Z,100622.19
2022-12-15T01:10:38.207Z,100623.25
2022-12-15T01:13:24.214Z,100627.63
2022-12-15T01:16:09.602Z,100624.91
2022-12-15T01:18:55.137Z,100609.69
2022-12-15T01:21:24.677Z,100622.72
2022-12-15T01:23:53.825Z,100617.00
2022-12-15T01:26:20.618Z,100617.00
2022-12-15T01:28:47.383Z,100630.34
2022-12-15T01:31:14.595Z,100621.66
2022-12-15T01:33:42.843Z,100622.72
2022-12-15T01:36:10.589Z,100616.22
2022-12-15T01:38:37.328Z,100617.84
2022-12-15T01:41:10.576Z,100617.84
2022-12-15T01:43:39.424Z,100609.69
2022-12-15T01:46:16.145Z,100603.19
2022-12-15T01:48:48.996Z,100605.63
2022-12-15T01:51:35.570Z,100612.69
2022-12-15T01:54:09.984Z,100615.94
2022-12-15T01:56:50.169Z,100627.63
2022-12-15T01:59:21.173Z,100617.59
2022-12-15T02:01:49.810Z,100620.03
2022-12-15T02:04:20.389Z,100620.03
2022-12-15T02:06:47.085Z,100630.88
2022-12-15T02:09:14.690Z,100630.34
2022-12-15T02:12:09.133Z,100623.28
2022-12-15T02:14:53.989Z,100628.16
2022-12-15T02:17:59.078Z,100618.94
2022-12-15T02:20:28.469Z,100624.91
2022-12-15T02:23:00.915Z,100628.69
2022-12-15T02:25:33.578Z,100628.16
2022-12-15T02:28:17.105Z,100639.00
2022-12-15T02:31:25.377Z,100636.31
2022-12-15T02:34:00.160Z,100642.81
2022-12-15T02:36:36.779Z,100652.06
2022-12-15T02:39:05.254Z,100654.75
2022-12-15T02:41:43.319Z,100650.41
2022-12-15T02:44:20.142Z,100641.19
2022-12-15T02:47:16.198Z,100642.81
2022-12-15T02:49:54.872Z,100635.75
2022-12-15T02:52:33.332Z,100632.75
2022-12-15T02:55:14.853Z,100638.47
2022-12-15T02:57:51.226Z,100639.81
2022-12-15T03:02:55.401Z,100642.25
2022-12-15T03:05:24.805Z,100637.88
2022-12-15T03:07:54.129Z,100644.13
2022-12-15T03:10:25.010Z,100642.50
2022-12-15T03:12:52.260Z,100637.88
2022-12-15T03:15:19.627Z,100636.28
2022-12-15T03:17:46.569Z,100641.72
2022-12-15T03:20:13.280Z,100633.81
2022-12-15T03:22:40.483Z,100641.13
2022-12-15T03:25:07.463Z,100638.41
2022-12-15T03:27:35.506Z,100633.00
2022-12-15T03:30:02.259Z,100637.88
2022-12-15T03:32:29.873Z,100634.63
2022-12-15T03:34:56.516Z,100627.56
2022-12-15T03:37:23.141Z,100634.91
2022-12-15T03:39:49.804Z,100635.72
2022-12-15T03:42:36.444Z,100632.44
2022-12-15T03:45:03.636Z,100643.31
2022-12-15T03:47:30.303Z,100638.41
2022-12-15T03:49:56.933Z,100633.00
2022-12-15T03:52:24.145Z,100636.81
2022-12-15T03:54:50.872Z,100641.13
2022-12-15T03:57:17.563Z,100648.47
2022-12-15T03:59:44.192Z,100652.28
2022-12-15T04:02:12.283Z,100651.44
2022-12-15T04:04:39.054Z,100650.63
2022-12-15T04:07:05.664Z,100645.19
2022-12-15T04:09:32.308Z,100631.09
2022-12-15T04:11:58.933Z,100641.94
2022-12-15T04:14:25.583Z,100638.41
2022-12-15T04:16:52.265Z,100645.47
2022-12-15T04:19:37.554Z,100644.94
2022-12-15T04:22:04.222Z,100641.13
2022-12-15T04:24:49.391Z,100647.91
2022-12-15T04:27:34.935Z,100646.03
2022-12-15T04:30:19.804Z,100642.25
2022-12-15T04:33:05.306Z,100647.91
2022-12-15T04:35:52.328Z,100645.19
2022-12-15T04:38:43.939Z,100639.78
2022-12-15T04:41:37.331Z,100636.25
2022-12-15T04:44:23.100Z,100639.50
2022-12-15T04:47:08.625Z,100638.41
2022-12-15T04:49:54.138Z,100632.97
2022-12-15T04:52:39.702Z,100630.78
2022-12-15T04:55:25.213Z,100632.44
2022-12-15T04:58:10.371Z,100630.78
2022-12-15T05:00:55.938Z,100628.38
2022-12-15T05:03:41.161Z,100622.41
2022-12-15T05:06:27.423Z,100628.06
2022-12-15T05:09:12.714Z,100628.63
2022-12-15T05:11:58.199Z,100632.41
2022-12-15T05:14:43.329Z,100631.06
2022-12-15T05:17:28.960Z,100638.38
2022-12-15T05:20:14.115Z,100635.66
2022-12-15T05:22:59.258Z,100630.22
2022-12-15T05:25:44.269Z,100635.38
2022-12-15T05:28:29.752Z,100637.53
2022-12-15T05:31:15.192Z,100631.31
2022-12-15T05:33:41.932Z,100633.22
2022-12-15T05:36:08.868Z,100632.94
2022-12-15T05:38:35.552Z,100634.59
2022-12-15T05:41:02.213Z,100641.63
2022-12-15T05:43:29.372Z,100644.63
2022-12-15T05:45:56.328Z,100639.19
2022-12-15T05:48:23.003Z,100638.09
2022-12-15T05:50:50.639Z,100634.59
2022-12-15T05:53:17.394Z,100625.09
2022-12-15T05:55:44.029Z,100636.50
2022-12-15T05:58:10.649Z,100628.88
2022-12-15T06:00:37.594Z,100630.78
2022-12-15T06:03:04.622Z,100640.59
2022-12-15T06:05:31.380Z,100641.13
2022-12-15T06:08:00.395Z,100648.19
2022-12-15T06:10:27.490Z,100650.91
2022-12-15T06:12:54.345Z,100654.16
2022-12-15T06:15:22.006Z,100651.97
2022-12-15T06:17:49.644Z,100656.34
2022-12-15T06:20:16.634Z,100649.84
2022-12-15T06:22:49.452Z,100645.19
2022-12-15T06:25:17.777Z,100642.75
2022-12-15T06:27:45.637Z,100650.38
2022-12-15T06:30:12.886Z,100652.50
2022-12-15T06:32:39.515Z,100654.44
2022-12-15T06:35:06.720Z,100646.00
2022-12-15T06:37:33.297Z,100652.50
2022-12-15T06:40:00.866Z,100649.78
2022-12-15T06:42:27.521Z,100659.03
2022-12-15T06:44:54.172Z,100656.31
2022-12-15T06:47:20.783Z,100651.94
2022-12-15T06:49:47.477Z,100657.38
2022-12-15T06:52:14.173Z,100654.94
2022-12-15T06:54:40.865Z,100659.56
2022-12-15T06:57:07.487Z,100662.25
2022-12-15T06:59:34.220Z,100654.94
2022-12-15T07:02:01.011Z,100656.84
2022-12-15T07:04:27.834Z,100663.91
2022-12-15T07:06:54.526Z,100661.72
2022-12-15T07:09:21.264Z,100666.31
2022-12-15T07:11:50.369Z,100677.44
2022-12-15T07:14:17.149Z,100672.28
2022-12-15T07:16:43.978Z,100664.41
2022-12-15T07:19:12.679Z,100660.34
2022-12-15T07:21:39.618Z,100667.66
2022-12-15T07:24:06.968Z,100673.63
2022-12-15T07:26:34.213Z,100657.34
2022-12-15T07:29:00.865Z,100654.91
2022-12-15T07:31:27.569Z,100667.38
2022-12-15T07:33:54.830Z,100667.13
2022-12-15T07:36:22.144Z,100669.03
2022-12-15T07:38:51.109Z,100673.63
2022-12-15T07:41:19.486Z,100670.91
2022-12-15T07:43:47.908Z,100676.34
2022-12-15T07:46:14.969Z,100666.56
2022-12-15T07:48:41.810Z,100672.81
2022-12-15T07:51:17.191Z,100686.13
2022-12-15T07:53:46.601Z,100686.13
2022-12-15T07:56:13.336Z,100694.81
2022-12-15T07:58:39.946Z,100692.63
2022-12-15T08:01:10.129Z,100691.81
2022-12-15T08:03:38.004Z,100694.28
2022-12-15T08:06:12.529Z,100689.38
2022-12-15T08:08:40.484Z,100710.53
2022-12-15T08:11:13.503Z,100704.00
2022-12-15T08:16:29.315Z,100716.50
2022-12-15T08:18:57.331Z,100715.97
2022-12-15T08:21:24.246Z,100730.31
2022-12-15T08:23:50.919Z,100719.47
2022-12-15T08:26:18.858Z,100724.09
2022-12-15T08:28:46.062Z,100733.03
2022-12-15T08:31:17.740Z,100737.69
2022-12-15T08:33:45.676Z,100737.09
2022-12-15T08:36:14.341Z,100733.84
2022-12-15T08:38:42.843Z,100737.91
2022-12-15T08:41:15.987Z,100731.16
2022-12-15T08:43:48.064Z,100741.47
2022-12-15T08:46:21.539Z,100741.47
2022-12-15T08:48:49.478Z,100752.34
2022-12-15T08:51:17.297Z,100742.31
2022-12-15T08:53:44.159Z,100737.41
2022-12-15T08:56:13.918Z,100749.06
2022-12-15T08:58:40.851Z,100734.13
2022-12-15T09:01:15.954Z,100726.25
2022-12-15T09:03:46.552Z,100744.97
2022-12-15T09:06:15.969Z,100745.72
2022-12-15T09:08:43.065Z,100747.66
2022-12-15T09:11:09.776Z,100743.28
2022-12-15T09:13:36.762Z,100742.47
2022-12-15T09:16:09.909Z,100765.81
2022-12-15T09:18:37.604Z,100759.56
2022-12-15T09:21:06.680Z,100785.31
2022-12-15T09:23:35.619Z,100781.56
2022-12-15T09:26:08.731Z,100785.63
2022-12-15T09:28:35.949Z,100794.59
2022-12-15T09:31:14.382Z,100784.34
2022-12-15T09:33:42.648Z,100791.44
2022-12-15T09:36:13.395Z,100782.75
2022-12-15T09:38:42.074Z,100780.63
2022-12-15T09:41:17.272Z,100785.00
2022-12-15T09:43:50.558Z,100800.22
2022-12-15T09:46:34.890Z,100801.34
2022-12-15T09:49:10.713Z,100801.38
2022-12-15T09:51:56.030Z,100810.59
2022-12-15T09:54:26.877Z,100809.00
2022-12-15T09:56:56.996Z,100812.81
2022-12-15T09:59:50.932Z,100812.84
2022-12-15T10:02:42.821Z,100815.56
2022-12-15T10:05:57.611Z,100813.97
2022-12-15T10:08:17.392Z,100814.00
2022-12-15T10:10:57.201Z,100811.56
2022-12-15T10:13:50.292Z,100816.19
2022-12-15T10:16:23.183Z,100816.22
2022-12-15T10:19:16.660Z,100817.56
2022-12-15T10:21:43.528Z,100818.66
2022-12-15T10:24:31.384Z,100823.31
2022-12-15T10:27:14.128Z,100825.22
2022-12-15T10:29:45.432Z,100832.00
2022-12-15T10:32:19.875Z,100830.41
2022-12-15T10:34:46.743Z,100826.34
2022-12-15T10:37:18.676Z,100828.78
2022-12-15T10:39:50.509Z,100838.03
2022-12-15T10:42:21.277Z,100833.16
2022-12-15T10:44:54.110Z,100835.34
2022-12-15T10:47:21.358Z,100828.53
2022-12-15T10:49:48.749Z,100831.81
2022-12-15T10:52:25.346Z,100830.16
2022-12-15T10:54:54.420Z,100824.47
2022-12-15T10:57:35.439Z,100821.22
2022-12-15T11:00:14.024Z,100819.84
2022-12-15T11:02:42.380Z,100822.28
2022-12-15T11:05:17.389Z,100812.78
2022-12-15T11:08:12.229Z,100814.13
2022-12-15T11:11:09.002Z,100809.81
2022-12-15T11:13:36.281Z,100831.56
2022-12-15T11:16:17.259Z,100823.94
2022-12-15T11:18:55.575Z,100832.09
2022-12-15T11:21:38.734Z,100831.56
2022-12-15T11:24:44.078Z,100825.59
2022-12-15T11:27:47.449Z,100826.66
2022-12-15T11:30:27.032Z,100826.13
2022-12-15T11:32:58.003Z,100829.38
2022-12-15T11:35:46.659Z,100819.59
2022-12-15T11:38:35.015Z,100820.66
2022-12-15T11:41:17.088Z,100822.84
2022-12-15T11:44:06.489Z,100828.56
2022-12-15T11:46:42.980Z,100814.41
2022-12-15T11:49:28.407Z,100821.75
2022-12-15T11:52:19.699Z,100821.22
2022-12-15T11:55:12.867Z,100823.09
2022-12-15T11:58:07.137Z,100823.38
2022-12-15T12:00:43.848Z,100819.00
2022-12-15T12:03:25.842Z,100813.81
2022-12-15T12:06:01.357Z,100809.47
2022-12-15T12:08:54.111Z,100812.44
2022-12-15T12:11:29.847Z,100799.91
2022-12-15T12:14:15.810Z,100804.81
2022-12-15T12:17:02.198Z,100806.72
2022-12-15T12:19:51.076Z,100811.31
2022-12-15T12:22:40.598Z,100801.25
2022-12-15T12:25:21.742Z,100799.56
2022-12-15T12:28:06.113Z,100801.50
2022-12-15T12:30:48.654Z,100811.25
2022-12-15T12:33:43.251Z,100806.34
2022-12-15T12:36:15.090Z,100806.06
2022-12-15T12:38:53.766Z,100807.94
2022-12-15T12:41:33.474Z,100805.22
2022-12-15T12:44:07.553Z,100804.66
2022-12-15T12:46:41.151Z,100807.94
2022-12-15T12:49:26.225Z,100805.75
2022-12-15T12:51:55.854Z,100809.00
2022-12-15T12:54:34.538Z,100802.44
2022-12-15T12:57:22.287Z,100803.50
2022-12-15T12:59:58.957Z,100811.63
2022-12-15T13:02:25.791Z,100810.25
2022-12-15T13:05:04.582Z,100808.88
2022-12-15T13:07:36.304Z,100812.16
2022-12-15T13:10:08.732Z,100813.22
2022-12-15T13:12:53.549Z,100800.94
2022-12-15T13:15:30.250Z,100808.00
2022-12-15T13:18:02.953Z,100806.31
2022-12-15T13:20:32.231Z,100813.69
2022-12-15T13:23:23.868Z,100813.34
2022-12-15T13:25:56.063Z,100819.06
2022-12-15T13:28:27.773Z,100816.28
2022-12-15T13:31:22.393Z,100825.25
2022-12-15T13:33:55.574Z,100819.78
2022-12-15T13:36:37.368Z,100823.28
2022-12-15T13:39:06.041Z,100813.97
2022-12-15T13:41:33.357Z,100809.56
2022-12-15T13:44:01.090Z,100810.59
2022-12-15T13:46:32.875Z,100811.66
2022-12-15T13:49:10.433Z,100803.44
2022-12-15T13:51:45.894Z,100804.50
2022-12-15T13:54:25.830Z,100806.63
2022-12-15T13:57:03.752Z,100819.72
2022-12-15T13:59:33.298Z,100816.72
2022-12-15T14:02:00.715Z,100818.34
2022-12-15T14:04:27.799Z,100818.59
2022-12-15T14:07:01.975Z,100807.09
2022-12-15T14:09:32.905Z,100816.31
2022-12-15T14:12:03.308Z,100807.31
2022-12-15T14:14:33.993Z,100816.31
2022-12-15T14:17:04.060Z,100816.63
2022-12-15T14:19:51.470Z,100812.31
2022-12-15T14:22:28.255Z,100811.00
2022-12-15T14:25:19.705Z,100805.06
2022-12-15T14:27:50.781Z,100806.22
2022-12-15T14:30:24.115Z,100803.56
2022-12-15T14:32:59.767Z,100798.16
2022-12-15T14:35:49.296Z,100798.47
2022-12-15T14:38:31.325Z,100803.16
2022-12-15T14:41:02.050Z,100805.09
2022-12-15T14:43:34.464Z,100806.75
2022-12-15T14:46:11.633Z,100798.31
2022-12-15T14:48:43.069Z,100800.00
2022-12-15T14:51:12.915Z,100801.38
2022-12-15T14:53:42.267Z,100793.25
2022-12-15T14:56:27.601Z,100792.97
2022-12-15T14:59:04.847Z,100800.63
2022-12-15T15:01:42.423Z,100791.91
2022-12-15T15:04:33.596Z,100798.72
2022-12-15T15:07:06.551Z,100799.31
2022-12-15T15:09:39.727Z,100803.41
2022-12-15T15:12:25.034Z,100802.06
2022-12-15T15:15:05.032Z,100805.63
2022-12-15T15:17:45.707Z,100806.19
2022-12-15T15:20:19.468Z,100813.00
2022-12-15T15:22:47.880Z,100833.75
2022-12-15T15:25:39.271Z,100823.13
2022-12-15T15:28:14.371Z,100829.13
2022-12-15T15:30:58.031Z,100831.84
2022-12-15T15:33:25.526Z,100823.19
2022-12-15T15:36:03.108Z,100822.66
2022-12-15T15:38:38.999Z,100827.28
2022-12-15T15:41:14.738Z,100829.72
2022-12-15T15:43:42.227Z,100833.03
2022-12-15T15:46:14.558Z,100831.94
2022-12-15T15:49:08.787Z,100837.94
2022-12-15T15:51:36.146Z,100850.50
2022-12-15T15:54:05.746Z,100852.97
2022-12-15T15:56:32.446Z,100850.53
2022-12-15T15:59:02.823Z,100855.41
2022-12-15T16:01:29.538Z,100857.59
2022-12-15T16:03:56.372Z,100867.16
2022-12-15T16:06:24.300Z,100856.78
2022-12-15T16:08:53.929Z,100850.81
2022-12-15T16:11:22.341Z,100866.88
2022-12-15T16:13:48.982Z,100857.91
2022-12-15T16:16:19.766Z,100855.47
2022-12-15T16:18:46.476Z,100860.91
2022-12-15T16:21:14.544Z,100856.00
2022-12-15T16:23:47.200Z,100854.41
2022-12-15T16:26:16.766Z,100872.91
2022-12-15T16:28:43.582Z,100868.28
2022-12-15T16:31:15.742Z,100875.09
2022-12-15T16:33:42.452Z,100872.38
2022-12-15T16:36:15.184Z,100868.56
2022-12-15T16:38:43.151Z,100877.00
2022-12-15T16:41:15.323Z,100876.19
2022-12-15T16:43:47.695Z,100881.09
2022-12-15T16:46:15.615Z,100869.91
2022-12-15T16:48:43.421Z,100875.66
2022-12-15T16:51:23.540Z,100876.72
2022-12-15T16:53:50.211Z,100879.75
2022-12-15T16:56:16.930Z,100873.75
2022-12-15T16:58:48.491Z,100879.47
2022-12-15T17:01:15.935Z,100872.94
2022-12-15T17:03:43.141Z,100883.81
2022-12-15T17:06:13.000Z,100886.53
2022-12-15T17:08:45.314Z,100887.09
2022-12-15T17:11:24.285Z,100889.22
2022-12-15T17:13:53.716Z,100894.41
2022-12-15T17:16:22.482Z,100886.50
2022-12-15T17:18:50.037Z,100896.31
2022-12-15T17:21:20.632Z,100890.59
2022-12-15T17:24:00.261Z,100898.22
2022-12-15T17:26:30.762Z,100889.75
2022-12-15T17:29:02.357Z,100902.28
2022-12-15T17:31:34.888Z,100899.56
2022-12-15T17:34:13.591Z,100905.56
2022-12-15T17:36:40.194Z,100903.38
2022-12-15T17:39:10.395Z,100904.19
2022-12-15T17:42:03.448Z,100907.50
2022-12-15T17:44:36.661Z,100902.84
2022-12-15T17:47:06.164Z,100909.38
2022-12-15T17:49:36.364Z,100913.72
2022-12-15T17:52:15.624Z,100908.81
2022-12-15T17:54:42.313Z,100917.53
2022-12-15T17:57:11.652Z,100912.34
2022-12-15T17:59:38.262Z,100908.53
2022-12-15T18:02:05.038Z,100918.59
2022-12-15T18:04:31.760Z,100919.13
2022-12-15T18:07:01.925Z,100920.22
2022-12-15T18:09:29.628Z,100921.31
2022-12-15T18:11:56.685Z,100916.66
2022-12-15T18:14:23.586Z,100918.00
2022-12-15T18:16:50.500Z,100922.91
2022-12-15T18:19:17.132Z,100928.88
2022-12-15T18:21:43.815Z,100922.63
2022-12-15T18:24:17.090Z,100921.00
2022-12-15T18:26:44.182Z,100937.31
2022-12-15T18:29:17.862Z,100929.41
2022-12-15T18:31:47.167Z,100935.94
2022-12-15T18:34:18.065Z,100943.00
2022-12-15T18:36:45.148Z,100938.66
2022-12-15T18:39:20.853Z,100947.66
2022-12-15T18:41:48.354Z,100944.09
2022-12-15T18:44:33.160Z,100936.19
2022-12-15T18:46:59.851Z,100940.84
2022-12-15T18:49:26.527Z,100934.31
2022-12-15T18:51:53.281Z,100940.03
2022-12-15T18:54:23.402Z,100935.41
2022-12-15T18:56:50.518Z,100940.84
2022-12-15T18:59:19.283Z,100956.34
2022-12-15T19:01:48.670Z,100949.53
2022-12-15T19:04:15.855Z,100954.97
2022-12-15T19:06:43.306Z,100958.22
2022-12-15T19:09:19.756Z,100959.81
2022-12-15T19:12:17.171Z,100957.38
2022-12-15T19:14:49.457Z,100954.94
2022-12-15T19:17:37.548Z,100955.75
2022-12-15T19:20:25.993Z,100954.13
2022-12-15T19:22:53.113Z,100962.53
2022-12-15T19:25:25.890Z,100958.44
2022-12-15T19:27:59.714Z,100955.19
2022-12-15T19:30:36.955Z,100950.28
2022-12-15T19:33:07.320Z,100954.34
2022-12-15T19:35:34.111Z,100959.22
2022-12-15T19:38:02.211Z,100967.91
2022-12-15T19:40:32.401Z,100970.63
2022-12-15T19:43:00.467Z,100967.91
2022-12-15T19:45:30.634Z,100973.63
2022-12-15T19:47:57.666Z,100962.75
2022-12-15T19:50:28.077Z,100971.69
2022-12-15T19:53:02.961Z,100970.63
2022-12-15T19:55:33.234Z,100968.97
2022-12-15T19:58:01.450Z,100976.06
2022-12-15T20:00:28.217Z,100982.56
2022-12-15T20:02:55.720Z,100981.19
2022-12-15T20:05:25.089Z,100979.28
2022-12-15T20:07:53.690Z,100982.28
2022-12-15T20:10:31.928Z,100977.34
2022-12-15T20:13:00.780Z,100978.72
2022-12-15T20:15:28.344Z,100984.13
2022-12-15T20:17:56.886Z,100972.44
2022-12-15T20:20:26.133Z,100967.84
2022-12-15T20:22:55.448Z,100984.13
2022-12-15T20:25:28.216Z,100985.50
2022-12-15T20:27:55.675Z,100990.91
2022-12-15T20:30:28.256Z,100987.91
2022-12-15T20:32:55.230Z,100994.41
2022-12-15T20:35:22.605Z,100992.78
2022-12-15T20:37:50.857Z,100992.78
2022-12-15T20:40:21.408Z,100991.13
2022-12-15T20:42:48.585Z,100990.31
2022-12-15T20:45:17.126Z,100999.56
2022-12-15T20:47:45.786Z,100998.75
2022-12-15T20:50:35.021Z,100993.31
2022-12-15T20:53:01.980Z,100995.47
2022-12-15T20:55:29.152Z,100997.66
2022-12-15T20:57:55.936Z,101008.50
2022-12-15T21:00:23.094Z,100996.00
2022-12-15T21:02:51.819Z,101003.59
2022-12-15T21:05:21.967Z,100994.88
2022-12-15T21:07:49.603Z,100997.56
2022-12-15T21:10:18.799Z,101003.28
2022-12-15T21:12:47.780Z,101004.09
2022-12-15T21:15:20.842Z,101005.72
2022-12-15T21:17:57.944Z,101011.44
2022-12-15T21:20:41.552Z,101010.38
2022-12-15T21:23:28.940Z,101013.31
2022-12-15T21:25:57.288Z,101017.94
2022-12-15T21:28:25.141Z,101021.75
2022-12-15T21:30:52.354Z,101012.78
2022-12-15T21:33:19.367Z,101017.38
2022-12-15T21:35:47.328Z,101014.66
2022-12-15T21:38:34.118Z,101009.50
2022-12-15T21:41:04.644Z,101002.19
2022-12-15T21:43:35.971Z,101005.16
2022-12-15T21:46:10.429Z,101009.50
2022-12-15T21:48:56.016Z,101003.50
2022-12-15T21:51:22.699Z,101011.09
2022-12-15T21:53:49.437Z,101018.69
2022-12-15T21:56:19.042Z,101021.41
2022-12-15T21:58:49.143Z,101002.91
2022-12-15T22:01:20.784Z,101002.59
2022-12-15T22:03:54.728Z,101011.84
2022-12-15T22:06:27.375Z,101000.16
2022-12-15T22:08:56.354Z,101004.22
2022-12-15T22:11:33.004Z,101000.69
2022-12-15T22:14:03.112Z,101003.66
2022-12-15T22:16:29.959Z,100994.69
2022-12-15T22:18:58.360Z,100992.25
2022-12-15T22:21:25.833Z,100997.09
2022-12-15T22:23:52.627Z,100998.44
2022-12-15T22:26:30.027Z,100998.94
2022-12-15T22:29:00.622Z,100993.53
2022-12-15T22:31:28.027Z,100991.41
2022-12-15T22:33:55.202Z,101001.44
2022-12-15T22:36:21.934Z,101012.00
2022-12-15T22:38:48.558Z,101006.59
2022-12-15T22:41:23.695Z,101014.78
2022-12-15T22:43:52.883Z,101011.25
2022-12-15T22:46:23.717Z,101017.47
2022-12-15T22:48:52.354Z,101014.22
2022-12-15T22:51:19.321Z,101015.88
2022-12-15T22:53:46.123Z,101014.22
2022-12-15T22:56:26.247Z,101023.44
2022-12-15T22:59:00.202Z,101022.88
2022-12-15T23:01:27.747Z,101021.78
2022-12-15T23:03:55.691Z,101022.00
2022-12-15T23:06:23.672Z,101027.44
2022-12-15T23:08:55.756Z,101022.00
2022-12-15T23:11:38.879Z,101019.28
2022-12-15T23:14:13.855Z,101025.00
2022-12-15T23:16:41.157Z,101023.34
2022-12-15T23:19:08.757Z,101033.66
2022-12-15T23:21:36.018Z,101029.88
2022-12-15T23:24:02.743Z,101019.25
2022-12-15T23:26:29.446Z,101025.50
2022-12-15T23:28:56.136Z,101023.84
2022-12-15T23:31:23.234Z,101029.28
2022-12-15T23:33:52.098Z,101028.22
2022-12-15T23:36:19.818Z,101027.66
2022-12-15T23:38:46.649Z,101020.34
2022-12-15T23:41:17.828Z,101038.53
2022-12-15T23:43:44.726Z,101039.34
2022-12-15T23:46:11.567Z,101041.47
2022-12-15T23:48:40.987Z,101032.78
2022-12-15T23:51:14.100Z,101029.84
2022-12-15T23:53:41.969Z,101031.44
2022-12-15T23:56:14.703Z,101037.38
2022-12-15T23:58:43.280Z,101037.91
